Time;durP1;ratioP1;P1;durP2;ratioP2;P2;SDS_P1;SDS_P2;PMS_P1;PMS_P2;Temp;Humidity;BMP_temperature;BMP_pressure;BME280_temperature;BME280_humidity;BME280_pressure;Samples;Min_cycle;Max_cycle;Signal;HPM_P1;HPM_P2
2023/12/20 00:06:38;;;;;;;0.10;0.00;;;3.10;85.60;;;;;;21052521;28;20028;-59
2023/12/20 00:16:40;;;;;;;0.05;0.00;;;3.00;86.90;;;;;;21049395;28;20403;-59
2023/12/20 00:26:42;;;;;;;0.00;0.00;;;3.10;86.70;;;;;;21057754;28;20056;-61
2023/12/20 00:36:44;;;;;;;0.00;0.00;;;3.10;85.40;;;;;;21063882;28;20768;-44
2023/12/20 00:46:45;;;;;;;0.10;0.00;;;2.90;85.30;;;;;;21067168;28;20036;-59
2023/12/20 00:56:47;;;;;;;0.10;0.00;;;3.00;85.80;;;;;;21070276;28;20412;-50
2023/12/20 01:06:49;;;;;;;0.20;0.00;;;3.10;85.70;;;;;;21072654;28;20033;-59
2023/12/20 01:16:50;;;;;;;0.10;0.00;;;3.20;85.60;;;;;;21056499;28;20040;-59
2023/12/20 01:26:52;;;;;;;0.10;0.00;;;2.80;86.40;;;;;;20988273;28;20207;-50
2023/12/20 01:36:54;;;;;;;0.70;0.00;;;2.70;87.60;;;;;;20986291;28;20032;-61
2023/12/20 01:46:56;;;;;;;0.20;0.00;;;2.60;87.50;;;;;;21056881;28;20032;-61
2023/12/20 01:56:59;;;;;;;0.03;0.00;;;2.90;86.00;;;;;;21065983;28;20028;-61
2023/12/20 02:07:02;;;;;;;0.20;0.05;;;2.70;87.60;;;;;;21056785;28;20405;-61
2023/12/20 02:17:06;;;;;;;0.55;0.00;;;2.60;87.70;;;;;;21059518;28;20152;-61
2023/12/20 02:27:08;;;;;;;0.20;0.00;;;2.50;87.50;;;;;;21063285;28;20047;-47
2023/12/20 02:37:10;;;;;;;0.20;0.00;;;2.50;88.20;;;;;;21057619;28;20040;-61
2023/12/20 02:47:11;;;;;;;1.65;0.00;;;2.50;88.90;;;;;;21061640;28;20047;-61
2023/12/20 02:57:13;;;;;;;0.22;0.08;;;2.70;90.00;;;;;;21059061;28;20097;-48
2023/12/20 03:07:15;;;;;;;0.13;0.00;;;3.20;88.60;;;;;;21060413;28;20402;-62
2023/12/20 03:17:17;;;;;;;0.15;0.00;;;3.70;88.20;;;;;;21047474;28;20040;-58
2023/12/20 03:27:18;;;;;;;0.40;0.10;;;3.80;87.30;;;;;;20999483;28;20098;-62
2023/12/20 03:37:20;;;;;;;0.03;0.00;;;4.10;87.80;;;;;;20949919;28;20051;-59
2023/12/20 03:47:22;;;;;;;0.10;0.03;;;4.40;87.00;;;;;;20976953;28;20040;-49
2023/12/20 03:57:23;;;;;;;0.05;0.00;;;4.40;85.40;;;;;;20966261;28;20063;-46
2023/12/20 04:07:25;;;;;;;0.00;0.00;;;4.60;84.50;;;;;;20959423;28;20649;-45
2023/12/20 04:17:27;;;;;;;0.00;0.00;;;4.50;84.30;;;;;;20977456;28;20029;-46
2023/12/20 04:27:29;;;;;;;0.20;0.10;;;4.00;84.40;;;;;;20980957;28;20140;-47
2023/12/20 04:37:30;;;;;;;0.10;0.00;;;3.30;86.80;;;;;;20981264;28;20044;-47
2023/12/20 04:47:32;;;;;;;0.00;0.00;;;3.20;87.70;;;;;;20984728;28;20481;-49
2023/12/20 04:57:33;;;;;;;0.20;0.00;;;3.50;88.00;;;;;;20974283;28;20032;-47
2023/12/20 05:07:35;;;;;;;0.03;0.00;;;3.90;88.00;;;;;;20982735;28;20527;-47
2023/12/20 05:17:36;;;;;;;0.40;0.10;;;4.10;87.40;;;;;;20975998;28;20078;-50
2023/12/20 05:27:38;;;;;;;0.35;0.10;;;4.30;85.90;;;;;;20970331;28;20048;-48
2023/12/20 05:37:40;;;;;;;0.10;0.10;;;4.50;85.00;;;;;;20989226;28;20033;-46
2023/12/20 05:47:41;;;;;;;0.17;0.10;;;4.40;87.40;;;;;;20988803;28;20028;-59
2023/12/20 05:57:43;;;;;;;0.20;0.10;;;4.20;87.00;;;;;;20990960;28;20614;-50
2023/12/20 06:07:48;;;;;;;0.10;0.00;;;4.00;85.40;;;;;;20982935;28;20845;-56
2023/12/20 06:17:49;;;;;;;0.00;0.00;;;4.30;84.30;;;;;;20987166;28;20724;-60
2023/12/20 06:27:51;;;;;;;0.22;0.10;;;4.50;84.30;;;;;;20984047;28;20098;-47
2023/12/20 06:37:53;;;;;;;0.10;0.03;;;4.40;86.10;;;;;;20994919;28;20038;-53
2023/12/20 06:47:54;;;;;;;1.27;0.10;;;4.20;88.00;;;;;;20986862;28;20047;-60
2023/12/20 06:57:56;;;;;;;0.65;0.10;;;4.20;86.60;;;;;;21004050;28;20033;-59
2023/12/20 07:07:58;;;;;;;0.10;0.00;;;4.30;87.20;;;;;;20996438;28;20040;-61
2023/12/20 07:18:00;;;;;;;0.35;0.10;;;4.70;86.90;;;;;;20985538;28;20028;-59
2023/12/20 07:28:02;;;;;;;0.00;0.00;;;4.80;87.00;;;;;;20924676;28;20449;-50
2023/12/20 07:38:04;;;;;;;0.20;0.10;;;5.30;82.90;;;;;;20914859;28;20040;-52
2023/12/20 07:48:07;;;;;;;0.28;0.10;;;5.60;84.40;;;;;;20919501;28;20441;-53
2023/12/20 07:58:09;;;;;;;0.13;0.10;;;5.70;84.90;;;;;;20933792;28;20086;-61
2023/12/20 08:08:10;;;;;;;0.22;0.10;;;5.50;88.50;;;;;;20942714;28;20036;-62
2023/12/20 08:18:12;;;;;;;0.20;0.10;;;5.60;87.20;;;;;;20925458;28;20033;-59
2023/12/20 08:28:16;;;;;;;0.10;0.00;;;6.00;88.30;;;;;;21002509;28;20063;-59
2023/12/20 08:38:18;;;;;;;0.03;0.00;;;6.30;85.70;;;;;;21005945;28;20032;-60
2023/12/20 08:48:20;;;;;;;0.25;0.10;;;6.70;83.20;;;;;;21010794;28;20121;-51
2023/12/20 08:58:22;;;;;;;0.60;0.15;;;6.40;83.60;;;;;;20979012;28;20094;-60
2023/12/20 09:08:23;;;;;;;0.52;0.10;;;6.30;83.40;;;;;;20993544;28;20032;-60
2023/12/20 09:18:26;;;;;;;0.28;0.20;;;6.40;85.20;;;;;;20992968;28;20053;-60
2023/12/20 09:28:28;;;;;;;0.40;0.20;;;6.30;83.60;;;;;;20991142;28;20044;-60
2023/12/20 09:38:31;;;;;;;0.10;0.10;;;6.60;83.60;;;;;;20990988;28;20036;-49
2023/12/20 09:48:33;;;;;;;0.82;0.15;;;7.20;82.00;;;;;;20991775;28;20075;-48
2023/12/20 09:58:38;;;;;;;2.83;0.20;;;7.80;82.70;;;;;;20988396;28;20630;-49
2023/12/20 10:08:40;;;;;;;2.28;0.20;;;7.70;80.00;;;;;;20989298;28;20037;-55
2023/12/20 10:18:41;;;;;;;0.10;0.08;;;7.70;82.90;;;;;;20988223;28;20900;-44
2023/12/20 10:28:43;;;;;;;0.22;0.10;;;7.80;79.90;;;;;;20986095;28;20044;-54
2023/12/20 10:38:46;;;;;;;0.52;0.03;;;7.90;79.50;;;;;;20986371;28;20036;-50
2023/12/20 10:48:51;;;;;;;0.28;0.10;;;8.20;81.60;;;;;;20987096;28;20432;-59
2023/12/20 10:58:54;;;;;;;0.43;0.10;;;8.30;82.80;;;;;;20984230;28;20090;-49
2023/12/20 11:09:17;;;;;;;0.20;0.10;;;8.50;78.30;;;;;;20983340;28;20040;-49
2023/12/20 11:19:18;;;;;;;0.43;0.32;;;8.90;77.20;;;;;;20988314;28;20032;-56
2023/12/20 11:29:37;;;;;;;0.32;0.17;;;9.00;79.20;;;;;;20985325;28;20118;-50
2023/12/20 11:39:38;;;;;;;0.82;0.22;;;8.30;80.00;;;;;;20980755;28;20111;-57
2023/12/20 11:49:40;;;;;;;0.35;0.20;;;8.10;78.80;;;;;;20986007;28;20029;-49
2023/12/20 11:59:43;;;;;;;0.28;0.20;;;8.20;80.40;;;;;;20981373;28;20048;-52
2023/12/20 12:09:46;;;;;;;0.68;0.40;;;8.40;81.00;;;;;;20981268;28;20036;-59
2023/12/20 12:19:48;;;;;;;0.98;0.40;;;7.80;82.00;;;;;;20980511;28;20032;-60
2023/12/20 12:30:07;;;;;;;0.93;0.30;;;7.40;82.20;;;;;;20970363;28;20037;-50
2023/12/20 12:40:14;;;;;;;1.10;0.55;;;8.20;84.30;;;;;;20994528;28;20029;-50
2023/12/20 12:50:16;;;;;;;1.35;0.40;;;9.40;81.90;;;;;;20978440;28;20032;-46
2023/12/20 13:00:19;;;;;;;1.25;0.50;;;9.90;77.70;;;;;;21020775;28;20039;-51
2023/12/20 13:10:21;;;;;;;0.80;0.40;;;10.20;76.90;;;;;;21013432;28;20028;-51
2023/12/20 13:20:23;;;;;;;2.20;0.80;;;9.70;78.90;;;;;;21014774;28;20090;-53
2023/12/20 13:30:24;;;;;;;1.08;0.60;;;8.60;78.10;;;;;;21001730;28;20370;-50
2023/12/20 13:40:28;;;;;;;0.90;0.47;;;7.60;80.60;;;;;;20994275;28;20036;-59
2023/12/20 13:50:30;;;;;;;1.58;0.70;;;7.00;82.00;;;;;;20999134;28;20036;-50
2023/12/20 14:00:32;;;;;;;1.67;0.90;;;6.90;83.30;;;;;;20997963;28;20035;-53
2023/12/20 14:10:34;;;;;;;0.43;0.20;;;6.80;84.00;;;;;;21026608;28;20082;-58
2023/12/20 14:20:36;;;;;;;0.30;0.10;;;7.70;80.50;;;;;;20992278;28;20168;-59
2023/12/20 14:30:38;;;;;;;3.17;1.02;;;8.20;78.80;;;;;;20990175;28;20545;-56
2023/12/20 14:40:40;;;;;;;1.67;0.70;;;8.30;80.20;;;;;;20989700;28;20040;-59
2023/12/20 14:50:42;;;;;;;1.77;0.50;;;7.20;80.80;;;;;;20988147;28;20094;-50
2023/12/20 15:00:44;;;;;;;1.17;0.50;;;6.30;82.80;;;;;;21016816;28;20066;-45
2023/12/20 15:10:46;;;;;;;0.60;0.20;;;5.40;84.10;;;;;;20968866;28;20388;-49
2023/12/20 15:20:49;;;;;;;0.20;0.10;;;4.70;88.60;;;;;;20986288;28;20039;-49
2023/12/20 15:30:51;;;;;;;0.50;0.30;;;5.30;86.60;;;;;;20989365;28;20032;-47
2023/12/20 15:40:56;;;;;;;0.43;0.10;;;5.40;86.60;;;;;;20986721;28;20102;-60
2023/12/20 15:50:58;;;;;;;0.22;0.10;;;4.70;88.40;;;;;;20986821;28;20096;-60
2023/12/20 16:00:59;;;;;;;0.47;0.15;;;4.40;90.00;;;;;;20986968;28;20082;-48
2023/12/20 16:11:04;;;;;;;0.28;0.10;;;4.00;90.40;;;;;;21007342;28;20091;-59
2023/12/20 16:21:06;;;;;;;0.43;0.10;;;3.90;90.40;;;;;;21078618;28;20055;-61
2023/12/20 16:31:08;;;;;;;0.22;0.20;;;3.60;91.00;;;;;;21073768;28;20534;-60
2023/12/20 16:41:10;;;;;;;0.63;0.17;;;3.50;91.20;;;;;;21059435;28;20036;-49
2023/12/20 16:51:12;;;;;;;1.50;0.10;;;3.50;91.30;;;;;;21080383;28;20028;-50
2023/12/20 17:01:15;;;;;;;1.92;0.35;;;3.50;91.70;;;;;;21071463;28;20039;-47
2023/12/20 17:11:17;;;;;;;0.15;0.10;;;4.20;89.80;;;;;;21062464;28;20397;-61
2023/12/20 17:21:19;;;;;;;0.40;0.10;;;4.90;87.40;;;;;;21058144;28;20086;-61
2023/12/20 17:31:21;;;;;;;0.20;0.10;;;5.60;84.20;;;;;;20986306;28;20539;-58
2023/12/20 17:41:22;;;;;;;1.48;0.00;;;5.70;82.90;;;;;;20970309;28;20044;-60
2023/12/20 17:51:24;;;;;;;0.22;0.10;;;5.80;82.40;;;;;;20990663;28;20032;-59
2023/12/20 18:01:26;;;;;;;0.20;0.05;;;5.50;82.00;;;;;;20984689;28;20102;-59
2023/12/20 18:11:28;;;;;;;6.53;0.40;;;5.10;83.70;;;;;;20973989;28;20041;-59
2023/12/20 18:21:30;;;;;;;0.10;0.08;;;4.80;84.70;;;;;;20945211;28;20044;-59
2023/12/20 18:31:32;;;;;;;1.55;0.10;;;4.90;82.90;;;;;;20982677;28;20028;-59
2023/12/20 18:41:34;;;;;;;1.17;0.00;;;5.20;82.00;;;;;;20967406;28;20473;-50
2023/12/20 18:51:40;;;;;;;0.28;0.10;;;5.00;81.90;;;;;;20984284;28;20032;-45
2023/12/20 19:01:41;;;;;;;0.88;0.10;;;4.80;81.40;;;;;;20977721;28;20020;-59
2023/12/20 19:11:43;;;;;;;0.40;0.10;;;4.90;80.90;;;;;;20969368;28;20029;-52
2023/12/20 19:21:45;;;;;;;1.27;0.08;;;5.10;80.70;;;;;;20958463;28;20044;-57
2023/12/20 19:31:48;;;;;;;0.20;0.10;;;5.10;81.40;;;;;;20968111;28;20037;-59
2023/12/20 19:41:50;;;;;;;0.68;0.10;;;5.20;79.70;;;;;;20895684;28;20048;-59
2023/12/20 19:51:52;;;;;;;0.38;0.10;;;5.10;79.70;;;;;;20940013;28;20025;-57
2023/12/20 20:01:55;;;;;;;0.20;0.10;;;5.30;78.00;;;;;;20967614;28;20091;-53
2023/12/20 20:11:59;;;;;;;0.00;0.00;;;5.10;77.10;;;;;;20930631;28;20044;-58
2023/12/20 20:22:00;;;;;;;0.10;0.00;;;5.00;76.90;;;;;;20972807;28;20402;-59
2023/12/20 20:32:02;;;;;;;0.90;0.10;;;5.00;77.50;;;;;;20980819;28;20028;-45
2023/12/20 20:42:04;;;;;;;0.20;0.10;;;4.90;77.80;;;;;;20960489;28;20060;-48
2023/12/20 20:52:06;;;;;;;0.20;0.10;;;4.70;77.70;;;;;;20982395;28;20118;-47
2023/12/20 21:02:08;;;;;;;0.47;0.10;;;4.90;78.00;;;;;;20994994;28;20032;-44
2023/12/20 21:12:10;;;;;;;0.45;0.10;;;4.70;77.70;;;;;;20954642;28;20056;-46
2023/12/20 21:22:12;;;;;;;0.22;0.00;;;4.60;77.80;;;;;;20919848;28;20041;-48
2023/12/20 21:32:13;;;;;;;0.00;0.00;;;4.70;77.50;;;;;;20993136;28;20029;-58
2023/12/20 21:42:15;;;;;;;0.50;0.08;;;4.60;77.20;;;;;;20972084;28;20036;-46
2023/12/20 21:52:18;;;;;;;0.13;0.00;;;4.30;77.60;;;;;;20966107;28;20048;-48
2023/12/20 22:02:20;;;;;;;0.43;0.00;;;4.20;77.80;;;;;;20990308;28;20028;-59
2023/12/20 22:12:22;;;;;;;0.32;0.10;;;4.40;77.10;;;;;;20973894;28;20082;-45
2023/12/20 22:22:24;;;;;;;0.17;0.00;;;4.60;76.80;;;;;;20954417;28;20075;-46
2023/12/20 22:32:28;;;;;;;0.10;0.10;;;4.80;77.00;;;;;;20983557;28;20086;-49
2023/12/20 22:42:29;;;;;;;0.98;0.03;;;4.90;75.40;;;;;;20967290;28;20485;-47
2023/12/20 22:52:31;;;;;;;0.08;0.05;;;4.80;75.60;;;;;;20973494;28;20095;-48
2023/12/20 23:02:33;;;;;;;0.10;0.00;;;4.50;75.60;;;;;;20985950;28;20090;-59
2023/12/20 23:12:36;;;;;;;0.45;0.00;;;4.40;75.70;;;;;;20955896;28;20086;-58
2023/12/20 23:22:38;;;;;;;0.05;0.00;;;4.20;75.40;;;;;;20948665;28;20040;-44
2023/12/20 23:32:39;;;;;;;0.05;0.00;;;4.20;75.90;;;;;;20942201;28;20044;-58
2023/12/20 23:42:41;;;;;;;0.20;0.10;;;4.10;75.70;;;;;;20909811;28;20047;-52
2023/12/20 23:52:44;;;;;;;0.00;0.00;;;3.80;76.40;;;;;;20975598;28;20028;-46
